Time;durP1;ratioP1;P1;durP2;ratioP2;P2;SDS_P1;SDS_P2;PMS_P1;PMS_P2;Temp;Humidity;BMP_temperature;BMP_pressure;BME280_temperature;BME280_humidity;BME280_pressure;Samples;Min_cycle;Max_cycle;Signal;HPM_P1;HPM_P2
2021/01/01 00:00:43;;;;;;;60.45;31.50;;;1.60;99.90;;;;;;5106461;28;20064;-87
2021/01/01 00:03:10;;;;;;;70.47;36.13;;;1.70;99.90;;;;;;5078238;28;20101;-87
2021/01/01 00:05:36;;;;;;;75.10;37.55;;;1.70;99.90;;;;;;5071504;28;20040;-87
2021/01/01 00:08:02;;;;;;;76.25;39.70;;;1.70;99.90;;;;;;5066289;28;20055;-88
2021/01/01 00:10:28;;;;;;;71.95;37.40;;;1.70;99.90;;;;;;5073424;28;20048;-87
2021/01/01 00:12:53;;;;;;;63.90;33.60;;;1.80;99.90;;;;;;5073084;28;20139;-88
2021/01/01 00:15:19;;;;;;;59.30;33.20;;;1.70;99.90;;;;;;5068957;28;20044;-86
2021/01/01 00:17:45;;;;;;;58.95;31.25;;;1.90;99.90;;;;;;5077107;28;20051;-87
2021/01/01 00:20:11;;;;;;;52.20;29.92;;;1.80;99.90;;;;;;5075279;28;20043;-87
2021/01/01 00:22:39;;;;;;;56.50;29.20;;;1.90;99.90;;;;;;5073184;28;20058;-87
2021/01/01 00:25:06;;;;;;;55.65;30.63;;;1.90;99.90;;;;;;5097329;28;20138;-89
2021/01/01 00:27:32;;;;;;;61.33;30.25;;;2.00;99.90;;;;;;5105659;28;20044;-89
2021/01/01 00:29:58;;;;;;;55.83;29.77;;;2.00;99.90;;;;;;5084745;28;20098;-91
2021/01/01 00:32:24;;;;;;;52.58;28.63;;;2.00;99.90;;;;;;5070537;28;20107;-89
2021/01/01 00:34:51;;;;;;;58.03;27.92;;;2.10;99.90;;;;;;5085393;28;20028;-89
2021/01/01 00:37:17;;;;;;;46.63;28.15;;;2.10;99.90;;;;;;5086636;28;20047;-89
2021/01/01 00:39:43;;;;;;;48.53;26.60;;;2.20;99.90;;;;;;5102597;28;20096;-91
2021/01/01 00:42:12;;;;;;;50.28;27.90;;;2.30;99.90;;;;;;5048132;28;20069;-90
2021/01/01 00:44:39;;;;;;;50.80;28.02;;;2.30;99.90;;;;;;5077285;28;20115;-89
2021/01/01 00:47:08;;;;;;;50.35;28.65;;;2.30;99.90;;;;;;5077497;28;20052;-90
2021/01/01 00:49:34;;;;;;;53.10;28.40;;;2.30;99.90;;;;;;5060341;28;20089;-89
2021/01/01 00:52:04;;;;;;;51.10;26.88;;;2.40;99.90;;;;;;5063133;28;20118;-88
2021/01/01 00:54:30;;;;;;;45.85;26.90;;;2.40;99.90;;;;;;5056284;28;20056;-91
2021/01/01 00:56:57;;;;;;;47.15;26.33;;;2.50;99.90;;;;;;5065274;28;20432;-88
2021/01/01 00:59:23;;;;;;;42.28;25.23;;;2.50;99.90;;;;;;5055942;28;20477;-89
2021/01/01 01:01:49;;;;;;;44.70;26.27;;;2.60;99.90;;;;;;5060265;28;20043;-90
2021/01/01 01:04:15;;;;;;;42.17;23.70;;;2.50;99.90;;;;;;5092305;28;20499;-89
2021/01/01 01:06:41;;;;;;;45.72;23.30;;;2.50;99.90;;;;;;5086346;28;20122;-90
2021/01/01 01:09:09;;;;;;;45.15;24.13;;;2.50;99.90;;;;;;5074155;28;20043;-90
2021/01/01 01:11:35;;;;;;;41.20;21.67;;;2.50;99.90;;;;;;5071802;28;20036;-90
2021/01/01 01:14:02;;;;;;;42.90;23.15;;;2.60;99.90;;;;;;5086398;28;20124;-92
2021/01/01 01:16:31;;;;;;;40.15;20.83;;;2.60;99.90;;;;;;5082105;28;20052;-90
2021/01/01 01:18:58;;;;;;;37.95;22.40;;;2.60;99.90;;;;;;5091787;28;20056;-90
2021/01/01 01:21:25;;;;;;;40.45;21.70;;;2.70;99.90;;;;;;5082287;28;20032;-90
2021/01/01 01:23:52;;;;;;;36.33;21.65;;;2.70;99.90;;;;;;5092348;28;20044;-90
2021/01/01 01:26:19;;;;;;;35.67;22.02;;;2.70;99.90;;;;;;5065942;28;20031;-93
2021/01/01 01:28:45;;;;;;;39.75;21.42;;;2.70;99.90;;;;;;5089474;28;20055;-90
2021/01/01 01:31:12;;;;;;;39.03;21.67;;;2.70;99.90;;;;;;5053116;28;20048;-90
2021/01/01 01:33:38;;;;;;;37.50;21.13;;;2.70;99.90;;;;;;5107083;28;20127;-90
2021/01/01 01:36:04;;;;;;;35.42;20.92;;;2.80;99.90;;;;;;5092830;28;20127;-93
2021/01/01 01:38:30;;;;;;;42.45;21.63;;;2.80;99.90;;;;;;5059168;28;20396;-88
2021/01/01 01:40:56;;;;;;;41.58;21.02;;;2.80;99.90;;;;;;5096126;28;20047;-87
2021/01/01 01:43:24;;;;;;;36.13;21.85;;;2.90;99.90;;;;;;5050115;28;20429;-85
2021/01/01 01:45:50;;;;;;;41.58;22.42;;;2.90;99.90;;;;;;5093317;28;20040;-86
2021/01/01 01:48:22;;;;;;;45.72;23.10;;;2.90;99.90;;;;;;5093236;28;20050;-86
2021/01/01 01:50:48;;;;;;;36.03;21.65;;;2.90;99.90;;;;;;5113628;28;20035;-86
2021/01/01 01:53:16;;;;;;;38.90;21.73;;;2.90;99.90;;;;;;5062342;28;20059;-87
2021/01/01 01:55:42;;;;;;;40.90;22.35;;;2.90;99.90;;;;;;5096977;28;20089;-88
2021/01/01 01:58:21;;;;;;;38.67;22.88;;;2.90;99.90;;;;;;5063985;28;20350;-87
2021/01/01 02:03:51;;;;;;;38.33;21.73;;;2.90;99.90;;;;;;5081439;28;20132;-87
2021/01/01 02:06:17;;;;;;;39.72;20.98;;;3.00;99.90;;;;;;5065135;28;20040;-87
2021/01/01 02:08:43;;;;;;;39.20;20.98;;;3.00;99.90;;;;;;5110324;28;20040;-88
2021/01/01 02:11:10;;;;;;;35.20;20.70;;;2.90;99.90;;;;;;5080050;28;20042;-88
2021/01/01 02:13:37;;;;;;;45.42;22.58;;;2.90;99.90;;;;;;5086817;28;20382;-87
2021/01/01 02:16:06;;;;;;;41.80;23.38;;;3.00;99.90;;;;;;5080722;28;20047;-86
2021/01/01 02:18:33;;;;;;;38.88;22.00;;;3.00;99.90;;;;;;5095382;28;20040;-86
2021/01/01 02:20:59;;;;;;;37.60;23.13;;;3.00;99.90;;;;;;5082635;28;20127;-85
2021/01/01 02:23:25;;;;;;;37.33;21.85;;;3.00;99.90;;;;;;5065166;28;20131;-86
2021/01/01 02:25:50;;;;;;;40.25;21.92;;;3.00;99.90;;;;;;5075959;28;20781;-86
2021/01/01 02:28:16;;;;;;;37.42;21.38;;;3.00;99.90;;;;;;5087063;28;20063;-85
2021/01/01 02:30:42;;;;;;;38.10;21.15;;;3.10;99.90;;;;;;5073363;28;20115;-87
2021/01/01 02:33:08;;;;;;;38.58;21.58;;;3.10;99.90;;;;;;5096915;28;20396;-90
2021/01/01 02:35:34;;;;;;;34.72;21.20;;;3.10;99.90;;;;;;5101830;28;20045;-86
2021/01/01 02:38:00;;;;;;;37.85;21.58;;;3.10;99.90;;;;;;5071896;28;20058;-86
2021/01/01 02:40:25;;;;;;;54.40;24.52;;;3.10;99.90;;;;;;5072765;28;20060;-86
2021/01/01 02:42:51;;;;;;;38.45;21.67;;;3.20;99.90;;;;;;5062943;28;20043;-86
2021/01/01 02:45:17;;;;;;;38.85;20.17;;;3.20;99.90;;;;;;5072134;28;20042;-87
2021/01/01 02:47:43;;;;;;;39.60;20.67;;;3.20;99.90;;;;;;5075372;28;20047;-87
2021/01/01 02:50:11;;;;;;;38.83;19.42;;;3.20;99.90;;;;;;5099256;28;20155;-89
2021/01/01 02:52:37;;;;;;;38.60;20.48;;;3.20;99.90;;;;;;5085313;28;20801;-89
2021/01/01 02:55:03;;;;;;;39.15;19.48;;;3.10;99.90;;;;;;5090749;28;20043;-87
2021/01/01 02:57:28;;;;;;;40.30;20.15;;;3.10;99.90;;;;;;5066844;28;20052;-87
2021/01/01 02:59:54;;;;;;;39.22;21.55;;;3.10;99.90;;;;;;5070519;28;20048;-87
2021/01/01 03:02:20;;;;;;;33.28;19.42;;;3.00;99.90;;;;;;5075810;28;20442;-87
2021/01/01 03:04:45;;;;;;;36.35;20.48;;;3.00;99.90;;;;;;5088670;28;20036;-87
2021/01/01 03:07:11;;;;;;;37.70;20.13;;;2.90;99.90;;;;;;5072026;28;20089;-90
2021/01/01 03:09:37;;;;;;;43.70;20.83;;;2.90;99.90;;;;;;5085269;28;20044;-88
2021/01/01 03:12:03;;;;;;;39.33;21.45;;;2.90;99.90;;;;;;5084907;28;20044;-87
2021/01/01 03:14:29;;;;;;;45.92;21.15;;;2.80;99.90;;;;;;5080084;28;20044;-86
2021/01/01 03:16:54;;;;;;;37.15;21.05;;;2.80;99.90;;;;;;5085580;28;20043;-86
2021/01/01 03:19:20;;;;;;;37.88;21.60;;;2.70;99.90;;;;;;5051286;28;20043;-86
2021/01/01 03:21:46;;;;;;;38.65;22.00;;;2.70;99.90;;;;;;5075083;28;20043;-87
2021/01/01 03:24:11;;;;;;;44.22;22.42;;;2.70;99.90;;;;;;5076708;28;20047;-91
2021/01/01 03:26:37;;;;;;;37.30;21.90;;;2.70;99.90;;;;;;5096728;28;20044;-87
2021/01/01 03:29:03;;;;;;;34.83;21.27;;;2.60;99.90;;;;;;5074940;28;20122;-86
2021/01/01 03:31:29;;;;;;;38.83;22.85;;;2.60;99.90;;;;;;5082774;28;20500;-88
2021/01/01 03:33:54;;;;;;;40.70;21.30;;;2.50;99.90;;;;;;5065108;28;20051;-86
2021/01/01 03:36:20;;;;;;;43.95;22.75;;;2.60;99.90;;;;;;5079073;28;20125;-86
2021/01/01 03:38:46;;;;;;;43.03;23.48;;;2.60;99.90;;;;;;5079965;28;20120;-87
2021/01/01 03:41:13;;;;;;;37.65;20.77;;;2.50;99.90;;;;;;5089655;28;20032;-90
2021/01/01 03:43:39;;;;;;;39.05;22.52;;;2.50;99.90;;;;;;5059504;28;20055;-85
2021/01/01 03:46:05;;;;;;;38.63;21.42;;;2.50;99.90;;;;;;5056838;28;20042;-86
2021/01/01 03:48:31;;;;;;;36.55;21.48;;;2.50;99.90;;;;;;5080790;28;20036;-87
2021/01/01 03:50:57;;;;;;;45.67;22.23;;;2.50;99.90;;;;;;5074245;28;20040;-86
2021/01/01 03:53:22;;;;;;;35.30;21.13;;;2.60;99.90;;;;;;5082915;28;20044;-87
2021/01/01 03:55:48;;;;;;;40.22;20.83;;;2.50;99.90;;;;;;5083238;28;20437;-86
2021/01/01 03:58:14;;;;;;;39.78;22.02;;;2.60;99.90;;;;;;5073043;28;20101;-91
2021/01/01 04:00:40;;;;;;;34.58;19.55;;;2.60;99.90;;;;;;5093989;28;20492;-87
2021/01/01 04:03:06;;;;;;;40.22;21.40;;;2.60;99.90;;;;;;5073583;28;20051;-89
2021/01/01 04:05:31;;;;;;;41.00;22.10;;;2.60;99.90;;;;;;5081267;28;20042;-86
2021/01/01 04:07:57;;;;;;;40.72;21.40;;;2.60;99.90;;;;;;5072145;28;20401;-86
2021/01/01 04:10:23;;;;;;;41.17;21.10;;;2.50;99.90;;;;;;5079228;28;20481;-86
2021/01/01 04:12:49;;;;;;;39.63;20.75;;;2.60;99.90;;;;;;5075425;28;20492;-87
2021/01/01 04:15:15;;;;;;;37.78;21.13;;;2.60;99.90;;;;;;5076029;28;20058;-91
2021/01/01 04:17:40;;;;;;;41.90;22.38;;;2.60;99.90;;;;;;5112713;28;20044;-88
2021/01/01 04:20:06;;;;;;;37.85;21.42;;;2.50;99.90;;;;;;5090564;28;20040;-88
2021/01/01 04:22:32;;;;;;;39.55;20.92;;;2.50;99.90;;;;;;5078363;28;20052;-87
2021/01/01 04:24:58;;;;;;;39.60;22.27;;;2.60;99.90;;;;;;5079122;28;20479;-87
2021/01/01 04:27:24;;;;;;;37.28;22.13;;;2.60;99.90;;;;;;5095017;28;20047;-85
2021/01/01 04:29:50;;;;;;;40.80;20.33;;;2.60;99.90;;;;;;5078706;28;20482;-86
2021/01/01 04:32:15;;;;;;;39.88;21.17;;;2.60;99.90;;;;;;5112303;28;20038;-91
2021/01/01 04:34:41;;;;;;;37.40;21.42;;;2.50;99.90;;;;;;5078316;28;20123;-86
2021/01/01 04:37:07;;;;;;;40.90;23.30;;;2.50;99.90;;;;;;5095332;28;20051;-86
2021/01/01 04:39:33;;;;;;;41.17;21.73;;;2.40;99.90;;;;;;5078368;28;20040;-86
2021/01/01 04:42:01;;;;;;;37.55;21.20;;;2.30;99.90;;;;;;5078525;28;20136;-86
2021/01/01 04:44:29;;;;;;;39.35;21.50;;;2.30;99.90;;;;;;5078183;28;20046;-85
2021/01/01 04:46:56;;;;;;;42.05;22.05;;;2.30;99.90;;;;;;5079046;28;20042;-85
2021/01/01 04:49:22;;;;;;;49.13;25.13;;;2.20;99.90;;;;;;5072958;28;20119;-86
2021/01/01 04:51:48;;;;;;;43.95;23.73;;;2.10;99.90;;;;;;5073426;28;20441;-86
2021/01/01 04:54:17;;;;;;;47.38;24.55;;;2.00;99.90;;;;;;5058475;28;20447;-86
2021/01/01 04:56:45;;;;;;;42.53;23.35;;;1.90;99.90;;;;;;5091636;28;20048;-85
2021/01/01 04:59:12;;;;;;;45.13;24.55;;;1.80;99.90;;;;;;5113258;28;20047;-85
2021/01/01 05:01:42;;;;;;;48.53;24.40;;;1.80;99.90;;;;;;5088671;28;20040;-85
2021/01/01 05:04:07;;;;;;;45.85;23.17;;;1.70;99.90;;;;;;5105388;28;20469;-85
2021/01/01 05:06:35;;;;;;;47.63;23.75;;;1.60;99.90;;;;;;5088314;28;20044;-85
2021/01/01 05:09:05;;;;;;;48.15;23.73;;;1.50;99.90;;;;;;5095881;28;20044;-89
2021/01/01 05:11:31;;;;;;;43.50;23.37;;;1.50;99.90;;;;;;5071722;28;20122;-85
2021/01/01 05:14:02;;;;;;;44.70;24.48;;;1.40;99.90;;;;;;5089782;28;21153;-85
2021/01/01 05:16:28;;;;;;;41.00;23.02;;;1.30;99.90;;;;;;5105202;28;20044;-85
2021/01/01 05:18:54;;;;;;;45.53;23.63;;;1.30;99.90;;;;;;5088225;28;20054;-85
2021/01/01 05:21:22;;;;;;;43.08;23.35;;;1.20;99.90;;;;;;5112670;28;20091;-90
2021/01/01 05:23:50;;;;;;;46.90;24.13;;;1.20;99.90;;;;;;5094776;28;20046;-85
2021/01/01 05:26:18;;;;;;;44.58;24.13;;;1.20;99.90;;;;;;5094191;28;20063;-85
2021/01/01 05:28:50;;;;;;;47.70;24.50;;;1.20;99.90;;;;;;5112565;28;20040;-85
2021/01/01 05:31:26;;;;;;;46.00;23.92;;;1.10;99.90;;;;;;5112542;28;20039;-85
2021/01/01 05:34:13;;;;;;;49.80;23.95;;;1.10;99.90;;;;;;5101720;28;20055;-84
2021/01/01 05:36:44;;;;;;;43.60;23.77;;;1.10;99.90;;;;;;5080883;28;20296;-86
2021/01/01 05:39:13;;;;;;;45.58;24.52;;;1.00;99.90;;;;;;5094743;28;20067;-85
2021/01/01 05:41:42;;;;;;;48.22;25.15;;;1.00;99.90;;;;;;5093750;28;20047;-85
2021/01/01 05:44:13;;;;;;;51.20;24.35;;;1.00;99.90;;;;;;5112409;28;20040;-86
2021/01/01 05:47:01;;;;;;;47.05;24.60;;;1.00;99.90;;;;;;5089912;28;20057;-85
2021/01/01 05:49:34;;;;;;;47.80;25.23;;;1.00;99.90;;;;;;5084810;28;20036;-86
2021/01/01 05:52:18;;;;;;;43.03;24.48;;;1.00;99.90;;;;;;5074048;28;20032;-86
2021/01/01 05:54:46;;;;;;;45.53;25.17;;;0.90;99.90;;;;;;5106030;28;20586;-85
2021/01/01 05:57:14;;;;;;;47.83;25.40;;;0.90;99.90;;;;;;5105446;28;20118;-85
2021/01/01 05:59:44;;;;;;;49.42;26.10;;;0.90;99.90;;;;;;5104481;28;20062;-84
2021/01/01 06:02:11;;;;;;;51.63;26.10;;;0.90;99.90;;;;;;5112438;28;20036;-85
2021/01/01 06:04:37;;;;;;;48.80;25.00;;;0.90;99.90;;;;;;5076592;28;20044;-85
2021/01/01 06:07:08;;;;;;;48.00;24.75;;;0.90;99.90;;;;;;5062594;28;20035;-86
2021/01/01 06:09:36;;;;;;;47.78;25.52;;;0.90;99.90;;;;;;5104795;28;20048;-85
2021/01/01 06:12:05;;;;;;;50.72;25.67;;;1.00;99.90;;;;;;5087083;28;20051;-85
2021/01/01 06:14:38;;;;;;;46.90;24.95;;;1.00;99.90;;;;;;5073770;28;20085;-85
2021/01/01 06:17:09;;;;;;;42.70;24.05;;;1.00;99.90;;;;;;5104042;28;20507;-87
2021/01/01 06:19:48;;;;;;;47.95;26.73;;;1.00;99.90;;;;;;5111008;28;20051;-88
2021/01/01 06:22:18;;;;;;;50.35;25.40;;;1.10;99.90;;;;;;5093486;28;20123;-87
2021/01/01 06:24:56;;;;;;;47.13;23.73;;;1.20;99.90;;;;;;5111076;28;20042;-87
2021/01/01 06:27:24;;;;;;;48.13;25.00;;;1.10;99.90;;;;;;5094002;28;20036;-86
2021/01/01 06:30:11;;;;;;;46.25;25.00;;;1.10;99.90;;;;;;5111452;28;20784;-86
2021/01/01 06:32:40;;;;;;;47.38;24.58;;;1.10;99.90;;;;;;5110118;28;20062;-86
2021/01/01 06:35:12;;;;;;;46.65;25.55;;;1.10;99.90;;;;;;5104672;28;20040;-86
2021/01/01 06:37:43;;;;;;;52.05;24.80;;;1.10;99.90;;;;;;5058951;28;20066;-87
2021/01/01 06:40:21;;;;;;;57.80;25.67;;;1.10;99.90;;;;;;5097780;28;20161;-86
2021/01/01 06:43:00;;;;;;;50.58;26.23;;;1.20;99.90;;;;;;5092444;28;20069;-87
2021/01/01 06:45:41;;;;;;;52.67;25.73;;;1.20;99.90;;;;;;5098795;28;20508;-89
2021/01/01 06:48:11;;;;;;;49.25;25.73;;;1.20;99.90;;;;;;5094801;28;20040;-87
2021/01/01 06:50:42;;;;;;;49.35;24.98;;;1.20;99.90;;;;;;5076945;28;20495;-87
2021/01/01 06:53:13;;;;;;;46.28;24.98;;;1.20;99.90;;;;;;5074641;28;20031;-87
2021/01/01 06:55:43;;;;;;;55.72;27.00;;;1.30;99.90;;;;;;5095777;28;20044;-88
2021/01/01 06:58:11;;;;;;;47.15;26.30;;;1.30;99.90;;;;;;5087307;28;20487;-86
2021/01/01 07:00:48;;;;;;;52.60;27.40;;;1.30;99.90;;;;;;5079874;28;20484;-86
2021/01/01 07:03:29;;;;;;;60.85;27.75;;;1.30;99.90;;;;;;5085045;28;20074;-87
2021/01/01 07:06:01;;;;;;;48.70;27.63;;;1.30;99.90;;;;;;5080191;28;20524;-87
2021/01/01 07:08:42;;;;;;;54.63;28.25;;;1.30;99.90;;;;;;5097019;28;20145;-88
2021/01/01 07:11:11;;;;;;;63.03;29.30;;;1.30;99.90;;;;;;5060579;28;20089;-86
2021/01/01 07:13:47;;;;;;;56.40;29.00;;;1.30;99.90;;;;;;5096425;28;20035;-86
2021/01/01 07:16:15;;;;;;;61.58;27.60;;;1.40;99.90;;;;;;5089519;28;20472;-86
2021/01/01 07:18:41;;;;;;;53.10;27.48;;;1.30;99.90;;;;;;5114179;28;20122;-86
2021/01/01 07:21:08;;;;;;;62.60;30.15;;;1.40;99.90;;;;;;5078720;28;20165;-86
2021/01/01 07:23:34;;;;;;;62.20;30.08;;;1.30;99.90;;;;;;5075911;28;20044;-88
2021/01/01 07:26:02;;;;;;;56.13;30.08;;;1.40;99.90;;;;;;5097939;28;20416;-87
2021/01/01 07:28:28;;;;;;;60.03;30.35;;;1.40;99.90;;;;;;5084646;28;20047;-90
2021/01/01 07:30:55;;;;;;;62.05;30.25;;;1.50;99.90;;;;;;5078071;28;20492;-89
2021/01/01 07:33:21;;;;;;;61.72;31.67;;;1.50;99.90;;;;;;5096981;28;20047;-87
2021/01/01 07:35:50;;;;;;;66.32;30.33;;;1.50;99.90;;;;;;5101507;28;20071;-88
2021/01/01 07:38:18;;;;;;;56.50;28.75;;;1.60;99.90;;;;;;5095627;28;20027;-87
2021/01/01 07:40:45;;;;;;;53.35;28.60;;;1.60;99.90;;;;;;5097979;28;20032;-87
2021/01/01 07:43:11;;;;;;;60.60;31.77;;;1.60;99.90;;;;;;5094110;28;20503;-86
2021/01/01 07:45:37;;;;;;;61.35;32.75;;;1.60;99.90;;;;;;5086127;28;20090;-86
2021/01/01 07:48:03;;;;;;;63.15;30.75;;;1.50;99.90;;;;;;5091906;28;20051;-87
2021/01/01 07:50:33;;;;;;;67.75;31.38;;;1.50;99.90;;;;;;5079729;28;20043;-90
2021/01/01 07:53:07;;;;;;;67.78;31.40;;;1.50;99.90;;;;;;5096530;28;20047;-87
2021/01/01 07:55:34;;;;;;;64.43;33.05;;;1.60;99.90;;;;;;5086898;28;20058;-91
2021/01/01 07:58:07;;;;;;;61.95;32.05;;;1.50;99.90;;;;;;5095479;28;20564;-87
2021/01/01 08:00:34;;;;;;;62.95;32.83;;;1.50;99.90;;;;;;5098677;28;20482;-89
2021/01/01 08:03:01;;;;;;;70.13;33.67;;;1.50;99.90;;;;;;5096293;28;20047;-87
2021/01/01 08:05:28;;;;;;;69.03;33.53;;;1.50;99.90;;;;;;5095963;28;20043;-87
2021/01/01 08:07:54;;;;;;;65.90;33.67;;;1.60;99.90;;;;;;5084699;28;20232;-84
2021/01/01 08:10:33;;;;;;;68.43;33.75;;;1.50;99.90;;;;;;5076232;28;20040;-84
2021/01/01 08:12:59;;;;;;;64.18;32.08;;;1.50;99.90;;;;;;5075748;28;20465;-84
2021/01/01 08:15:31;;;;;;;66.15;32.78;;;1.50;99.90;;;;;;5088823;28;20464;-84
2021/01/01 08:18:11;;;;;;;62.45;31.48;;;1.50;99.90;;;;;;5075254;28;20040;-84
2021/01/01 08:20:38;;;;;;;67.15;32.15;;;1.60;99.90;;;;;;5089204;28;20071;-84
2021/01/01 08:23:11;;;;;;;64.82;33.55;;;1.50;99.90;;;;;;5107890;28;20075;-86
2021/01/01 08:25:38;;;;;;;67.72;32.75;;;1.50;99.90;;;;;;5079530;28;20093;-88
2021/01/01 08:28:06;;;;;;;71.60;34.67;;;1.50;99.90;;;;;;5094834;28;20044;-85
2021/01/01 08:30:36;;;;;;;71.38;33.50;;;1.50;99.90;;;;;;5102413;28;20051;-84
2021/01/01 08:33:05;;;;;;;62.40;32.90;;;1.50;99.90;;;;;;5094257;28;20036;-85
2021/01/01 08:35:31;;;;;;;68.40;33.05;;;1.50;99.90;;;;;;5095686;28;20042;-85
2021/01/01 08:37:57;;;;;;;70.47;32.92;;;1.50;99.90;;;;;;5092222;28;20118;-84
2021/01/01 08:40:23;;;;;;;66.53;33.20;;;1.50;99.90;;;;;;5083538;28;20118;-84
2021/01/01 08:42:54;;;;;;;77.50;34.00;;;1.50;99.90;;;;;;5094280;28;20096;-85
2021/01/01 08:45:21;;;;;;;65.07;32.78;;;1.60;99.90;;;;;;5113146;28;20046;-85
2021/01/01 08:47:49;;;;;;;71.45;32.78;;;1.60;99.90;;;;;;5078146;28;20468;-85
2021/01/01 08:50:26;;;;;;;65.63;31.42;;;1.60;99.90;;;;;;5061542;28;20050;-86
2021/01/01 08:53:04;;;;;;;66.07;31.15;;;1.60;99.90;;;;;;5095149;28;20066;-85
2021/01/01 08:55:30;;;;;;;64.20;31.08;;;1.70;99.90;;;;;;5099440;28;20039;-85
2021/01/01 08:58:14;;;;;;;65.80;30.45;;;1.70;99.90;;;;;;5098606;28;20078;-85
2021/01/01 09:00:43;;;;;;;69.30;32.13;;;1.80;99.90;;;;;;5099464;28;20594;-88
2021/01/01 09:03:09;;;;;;;61.83;30.75;;;1.80;99.90;;;;;;5092622;28;20586;-85
2021/01/01 09:05:36;;;;;;;62.28;30.55;;;1.80;99.90;;;;;;5065685;28;20419;-85
2021/01/01 09:08:09;;;;;;;60.25;29.70;;;1.80;99.90;;;;;;5082492;28;20481;-85
2021/01/01 09:10:40;;;;;;;65.00;30.42;;;1.90;99.90;;;;;;5090432;28;20040;-84
2021/01/01 09:13:16;;;;;;;58.88;30.23;;;1.90;99.90;;;;;;5086000;28;20035;-85
2021/01/01 09:15:42;;;;;;;63.38;29.65;;;2.00;99.90;;;;;;5076712;28;20043;-90
2021/01/01 09:18:09;;;;;;;69.25;30.33;;;2.00;99.90;;;;;;5081633;28;20035;-85
2021/01/01 09:20:37;;;;;;;60.33;29.25;;;2.10;99.90;;;;;;5083977;28;20047;-84
2021/01/01 09:23:04;;;;;;;61.17;29.80;;;2.10;99.90;;;;;;5062795;28;20496;-85
2021/01/01 09:25:31;;;;;;;61.47;28.38;;;2.10;99.90;;;;;;5105503;28;20048;-85
2021/01/01 09:27:58;;;;;;;57.17;28.30;;;2.20;99.90;;;;;;5071513;28;20040;-84
2021/01/01 09:30:29;;;;;;;67.80;29.70;;;2.20;99.90;;;;;;5083561;28;20123;-84
2021/01/01 09:32:56;;;;;;;;;;;2.20;99.90;;;;;;5089091;28;20126;-85
2021/01/01 09:35:22;;;;;;;52.70;25.52;;;2.20;99.90;;;;;;5088141;28;19931;-85
2021/01/01 09:37:50;;;;;;;56.55;27.05;;;2.30;99.90;;;;;;5069557;28;20048;-84
2021/01/01 09:40:17;;;;;;;54.72;27.95;;;2.30;99.90;;;;;;5081922;28;20092;-85
2021/01/01 09:42:43;;;;;;;60.42;28.30;;;2.40;99.90;;;;;;5076180;28;20093;-89
2021/01/01 09:45:10;;;;;;;57.92;28.92;;;2.40;99.90;;;;;;5073883;28;20055;-84
2021/01/01 09:47:35;;;;;;;50.90;26.77;;;2.40;99.90;;;;;;5104364;28;20044;-85
2021/01/01 09:50:04;;;;;;;54.67;27.60;;;2.50;99.90;;;;;;5048510;28;20669;-85
2021/01/01 09:52:34;;;;;;;54.78;27.80;;;2.50;99.90;;;;;;5086987;28;20121;-83
2021/01/01 09:55:00;;;;;;;49.80;25.60;;;2.50;99.90;;;;;;5089580;28;20927;-87
2021/01/01 09:57:26;;;;;;;55.28;27.70;;;2.60;99.90;;;;;;5087150;28;20050;-83
2021/01/01 09:59:52;;;;;;;54.45;26.80;;;2.70;99.90;;;;;;5072891;28;20047;-83
2021/01/01 10:02:18;;;;;;;61.15;26.13;;;2.80;99.90;;;;;;5075200;28;20542;-84
2021/01/01 10:04:44;;;;;;;49.70;25.40;;;2.80;99.90;;;;;;5063940;28;20405;-87
2021/01/01 10:07:09;;;;;;;46.03;24.08;;;2.80;99.90;;;;;;5094966;28;20054;-84
2021/01/01 10:09:35;;;;;;;51.78;24.40;;;2.90;99.90;;;;;;5070925;28;20035;-86
2021/01/01 10:12:05;;;;;;;47.13;25.50;;;2.90;99.90;;;;;;5074646;28;20096;-87
2021/01/01 10:14:35;;;;;;;45.88;23.67;;;3.00;99.90;;;;;;5087526;28;20158;-86
2021/01/01 10:17:01;;;;;;;51.37;23.17;;;3.00;99.90;;;;;;5084102;28;20831;-86
2021/01/01 10:19:28;;;;;;;41.72;22.67;;;3.10;99.90;;;;;;5085241;28;20127;-88
2021/01/01 10:21:54;;;;;;;46.20;23.20;;;3.10;99.90;;;;;;5088219;28;20146;-87
2021/01/01 10:24:21;;;;;;;46.22;23.05;;;3.20;99.90;;;;;;5053806;28;20051;-85
2021/01/01 10:26:49;;;;;;;45.70;21.52;;;3.20;99.90;;;;;;5099642;28;20123;-88
2021/01/01 10:29:15;;;;;;;40.80;21.67;;;3.30;99.90;;;;;;5068916;28;20050;-86
2021/01/01 10:31:41;;;;;;;40.83;20.77;;;3.40;99.90;;;;;;5069452;28;20052;-87
2021/01/01 10:34:09;;;;;;;35.60;21.23;;;3.40;99.90;;;;;;5082385;28;20039;-87
2021/01/01 10:36:35;;;;;;;40.50;20.70;;;3.40;99.90;;;;;;5089276;28;20565;-86
2021/01/01 10:39:01;;;;;;;40.05;20.70;;;3.50;99.90;;;;;;5072464;28;20036;-89
2021/01/01 10:41:26;;;;;;;41.03;21.63;;;3.60;99.90;;;;;;5073185;28;20085;-87
2021/01/01 10:43:52;;;;;;;39.17;21.58;;;3.70;99.90;;;;;;5081355;28;20381;-87
2021/01/01 10:46:18;;;;;;;34.22;19.80;;;3.60;99.90;;;;;;5073358;28;20468;-86
2021/01/01 10:48:44;;;;;;;41.75;21.15;;;3.70;99.90;;;;;;5110828;28;20484;-86
2021/01/01 10:51:10;;;;;;;30.17;18.35;;;3.70;99.90;;;;;;5086811;28;20987;-88
2021/01/01 10:53:37;;;;;;;35.95;20.52;;;3.80;99.90;;;;;;5069575;28;20040;-86
2021/01/01 10:56:03;;;;;;;43.85;18.65;;;3.80;99.90;;;;;;5083293;28;20047;-88
2021/01/01 10:58:29;;;;;;;39.15;19.02;;;3.90;99.90;;;;;;5058898;28;20570;-87
2021/01/01 11:00:55;;;;;;;37.30;17.75;;;3.90;99.90;;;;;;5072127;28;20048;-87
2021/01/01 11:03:22;;;;;;;33.58;17.67;;;3.90;99.90;;;;;;5082805;28;20044;-85
2021/01/01 11:05:48;;;;;;;29.30;16.92;;;3.90;99.90;;;;;;5088644;28;20036;-89
2021/01/01 11:08:14;;;;;;;36.22;18.60;;;3.90;99.90;;;;;;5077385;28;20040;-89
2021/01/01 11:10:40;;;;;;;31.08;17.58;;;3.90;99.90;;;;;;5065296;28;20093;-88
2021/01/01 11:13:07;;;;;;;29.00;17.05;;;4.00;99.90;;;;;;5069147;28;20092;-90
2021/01/01 12:22:38;;;;;;;11.73;8.45;;;5.50;99.90;;;;;;5047613;28;20041;-91
2021/01/01 12:25:04;;;;;;;12.63;8.43;;;5.70;99.90;;;;;;5011819;28;20042;-87
2021/01/01 12:27:35;;;;;;;14.80;7.93;;;5.70;99.90;;;;;;5002838;28;20056;-92
2021/01/01 12:30:03;;;;;;;;;;;5.70;99.90;;;;;;5029021;28;20052;-93
2021/01/01 12:32:29;;;;;;;11.65;7.63;;;5.70;99.90;;;;;;5045643;28;19986;-89
2021/01/01 12:34:57;;;;;;;12.68;7.72;;;5.80;99.90;;;;;;5018319;28;20045;-90
2021/01/01 12:37:23;;;;;;;10.02;7.20;;;5.90;99.90;;;;;;4999226;28;20410;-92
2021/01/01 12:39:49;;;;;;;9.35;7.03;;;5.80;99.90;;;;;;5031353;28;20113;-89
2021/01/01 12:42:15;;;;;;;13.52;7.45;;;6.00;99.90;;;;;;5021193;28;20463;-89
2021/01/01 12:44:40;;;;;;;12.65;6.95;;;5.90;99.90;;;;;;5022674;28;20073;-89
2021/01/01 12:58:27;;;;;;;15.77;6.93;;;5.90;99.90;;;;;;5084976;28;20774;-90
2021/01/01 13:00:54;;;;;;;9.90;6.63;;;6.10;99.90;;;;;;5044151;28;20075;-89
2021/01/01 13:03:19;;;;;;;10.60;7.18;;;6.10;99.90;;;;;;5063639;28;20087;-89
2021/01/01 13:05:45;;;;;;;12.10;6.68;;;6.20;99.90;;;;;;5065970;28;20476;-90
2021/01/01 13:08:11;;;;;;;14.52;7.47;;;6.20;99.90;;;;;;5046562;28;20037;-89
2021/01/01 13:10:37;;;;;;;9.80;6.10;;;6.20;99.90;;;;;;5081249;28;20463;-89
2021/01/01 13:13:02;;;;;;;9.88;5.68;;;6.20;99.90;;;;;;5081035;28;20059;-90
2021/01/01 13:15:29;;;;;;;8.80;5.45;;;6.20;99.90;;;;;;5084812;28;20040;-90
2021/01/01 13:17:55;;;;;;;5.40;4.90;;;6.20;99.90;;;;;;5063432;28;20052;-90
2021/01/01 13:20:24;;;;;;;11.48;5.30;;;6.20;99.90;;;;;;5039671;28;20505;-90
2021/01/01 13:22:49;;;;;;;9.13;5.32;;;6.30;99.90;;;;;;5081926;28;20036;-89
2021/01/01 13:25:16;;;;;;;11.13;4.55;;;6.30;99.90;;;;;;5084548;28;20388;-89
2021/01/01 13:27:45;;;;;;;8.45;4.40;;;6.30;99.90;;;;;;5084996;28;20468;-90
2021/01/01 13:30:12;;;;;;;4.53;3.67;;;6.30;99.90;;;;;;5067318;28;20040;-90
2021/01/01 13:32:38;;;;;;;4.22;3.70;;;6.30;99.90;;;;;;5058925;28;20102;-89
2021/01/01 13:35:05;;;;;;;8.65;3.72;;;6.20;99.90;;;;;;5050530;28;20661;-90
2021/01/01 13:37:31;;;;;;;4.13;3.35;;;6.30;99.80;;;;;;5083882;28;20024;-90
2021/01/01 13:39:57;;;;;;;5.72;3.20;;;6.20;99.80;;;;;;5066392;28;20098;-90
2021/01/01 13:42:23;;;;;;;6.25;3.17;;;6.20;99.60;;;;;;5085048;28;20037;-90
2021/01/01 13:44:48;;;;;;;3.20;2.70;;;6.20;99.70;;;;;;5073448;28;20037;-90
2021/01/01 13:47:14;;;;;;;4.50;3.30;;;6.40;99.90;;;;;;5065789;28;20541;-88
2021/01/01 13:49:40;;;;;;;7.80;3.47;;;6.30;99.90;;;;;;5064842;28;20036;-89
2021/01/01 13:52:06;;;;;;;4.40;3.50;;;6.20;99.50;;;;;;5065387;28;20040;-88
2021/01/01 13:54:31;;;;;;;6.70;2.95;;;6.20;99.70;;;;;;5061140;28;20060;-89
2021/01/01 13:56:59;;;;;;;9.13;2.85;;;6.10;99.40;;;;;;5065675;28;20071;-88
2021/01/01 13:59:25;;;;;;;5.80;3.05;;;6.10;99.50;;;;;;5043316;28;20128;-89
2021/01/01 14:01:51;;;;;;;3.45;2.53;;;6.20;99.50;;;;;;5068312;28;20048;-89
2021/01/01 14:04:17;;;;;;;7.90;2.90;;;6.20;99.60;;;;;;5052963;28;20123;-88